createdAt,value
2022-08-19T06:26:11.980Z,19.25
2022-08-19T06:27:11.948Z,19.29
2022-08-19T06:28:15.011Z,19.33
2022-08-19T06:29:11.929Z,19.40
2022-08-19T06:30:12.922Z,19.47
2022-08-19T06:31:11.900Z,19.54
2022-08-19T06:32:11.881Z,19.59
2022-08-19T06:33:11.879Z,19.66
2022-08-19T06:34:11.880Z,19.73
2022-08-19T06:35:11.851Z,19.78
2022-08-19T06:36:11.840Z,19.83
2022-08-19T06:37:11.832Z,19.88
2022-08-19T06:38:11.831Z,19.95
2022-08-19T06:39:11.810Z,19.99
2022-08-19T06:40:11.907Z,20.03
2022-08-19T06:41:11.806Z,20.10
2022-08-19T06:42:11.784Z,20.14
2022-08-19T06:43:11.797Z,20.18
2022-08-19T06:44:13.241Z,20.23
2022-08-19T06:45:11.752Z,20.28
2022-08-19T06:46:11.745Z,20.31
2022-08-19T06:47:14.678Z,20.33
2022-08-19T06:48:12.765Z,20.38
2022-08-19T06:49:11.715Z,20.42
2022-08-19T06:50:11.736Z,20.43
2022-08-19T06:51:11.808Z,20.50
2022-08-19T06:52:13.644Z,20.52
2022-08-19T06:53:11.696Z,20.57
2022-08-19T06:54:19.047Z,20.62
2022-08-19T06:55:12.648Z,20.66
2022-08-19T06:56:11.628Z,20.72
2022-08-19T06:57:11.618Z,20.79
2022-08-19T06:58:11.629Z,20.85
2022-08-19T06:59:11.608Z,20.91
2022-08-19T07:00:13.016Z,20.97
2022-08-19T07:01:11.580Z,21.01
2022-08-19T07:02:11.584Z,21.06
2022-08-19T07:03:13.325Z,21.10
2022-08-19T07:04:12.073Z,21.17
2022-08-19T07:05:11.542Z,21.28
2022-08-19T07:06:21.335Z,21.35
2022-08-19T07:07:12.569Z,21.40
2022-08-19T07:08:12.605Z,21.44
2022-08-19T07:09:11.499Z,21.46
2022-08-19T07:10:11.581Z,21.49
2022-08-19T07:11:11.491Z,21.58
2022-08-19T07:12:11.454Z,21.72
2022-08-19T07:13:11.474Z,21.90
2022-08-19T07:14:19.614Z,22.02
2022-08-19T07:15:12.424Z,22.06
2022-08-19T07:16:11.456Z,22.12
2022-08-19T07:17:11.408Z,22.18
2022-08-19T07:18:11.927Z,22.35
2022-08-19T07:19:11.598Z,22.47
2022-08-19T07:20:11.369Z,22.62
2022-08-19T07:21:11.378Z,22.75
2022-08-19T07:22:13.151Z,22.86
2022-08-19T07:23:16.255Z,22.91
2022-08-19T07:24:12.417Z,22.94
2022-08-19T07:25:11.329Z,22.97
2022-08-19T07:26:11.441Z,22.98
2022-08-19T07:27:15.290Z,22.92
2022-08-19T07:28:19.679Z,22.76
2022-08-19T07:29:12.291Z,22.61
2022-08-19T07:30:11.685Z,22.51
2022-08-19T07:31:11.262Z,22.46
2022-08-19T07:32:11.561Z,22.47
2022-08-19T07:33:11.259Z,22.46
2022-08-19T07:34:11.224Z,22.42
2022-08-19T07:35:11.214Z,22.37
2022-08-19T07:36:11.204Z,22.39
2022-08-19T07:37:11.195Z,22.42
2022-08-19T07:38:11.213Z,22.49
2022-08-19T07:39:11.218Z,22.67
2022-08-19T07:40:11.172Z,22.83
2022-08-19T07:41:11.156Z,22.95
2022-08-19T07:42:11.178Z,23.07
2022-08-19T07:43:14.092Z,23.19
2022-08-19T07:44:12.121Z,23.25
2022-08-19T07:45:11.123Z,23.25
2022-08-19T07:47:48.376Z,23.20
2022-08-19T07:48:12.085Z,23.27
2022-08-19T07:49:11.070Z,23.38
2022-08-19T07:50:11.133Z,23.48
2022-08-19T07:51:11.043Z,23.65
2022-08-19T07:52:11.063Z,23.79
2022-08-19T07:53:11.022Z,23.85
2022-08-19T07:54:11.127Z,23.84
2022-08-19T07:55:40.284Z,23.80
2022-08-19T07:56:12.004Z,23.75
2022-08-19T07:57:10.984Z,23.69
2022-08-19T07:58:11.005Z,23.60
2022-08-19T07:59:10.994Z,23.50
2022-08-19T08:00:10.982Z,23.60
2022-08-19T08:01:10.935Z,23.75
2022-08-19T08:02:11.082Z,23.80
2022-08-19T08:03:10.930Z,23.83
2022-08-19T08:04:10.928Z,23.80
2022-08-19T08:05:10.898Z,23.80
2022-08-19T08:06:10.895Z,23.83
2022-08-19T08:07:10.919Z,23.85
2022-08-19T08:08:10.920Z,23.83
2022-08-19T08:09:10.873Z,23.76
2022-08-19T08:10:20.635Z,23.69
2022-08-19T08:11:11.832Z,23.66
2022-08-19T08:12:32.846Z,23.68
2022-08-19T08:13:12.106Z,23.68
2022-08-19T08:14:34.896Z,23.72
2022-08-19T08:15:12.719Z,23.73
2022-08-19T08:16:14.038Z,23.76
2022-08-19T08:17:11.175Z,23.83
2022-08-19T08:18:10.762Z,23.87
2022-08-19T08:19:20.374Z,23.88
2022-08-19T08:20:11.760Z,23.83
2022-08-19T08:21:10.733Z,23.69
2022-08-19T08:22:10.746Z,23.57
2022-08-19T08:23:10.717Z,23.61
2022-08-19T08:24:10.738Z,23.75
2022-08-19T08:25:10.703Z,23.85
2022-08-19T08:26:10.751Z,23.97
2022-08-19T08:27:11.323Z,23.97
2022-08-19T08:28:11.355Z,23.85
2022-08-19T08:29:12.738Z,23.84
2022-08-19T08:30:10.682Z,23.87
2022-08-19T08:31:10.624Z,23.87
2022-08-19T08:32:14.019Z,24.00
2022-08-19T08:33:10.682Z,24.16
2022-08-19T08:34:10.712Z,24.39
2022-08-19T08:35:10.583Z,24.57
2022-08-19T08:36:10.658Z,24.58
2022-08-19T08:37:10.564Z,24.64
2022-08-19T08:38:10.593Z,24.60
2022-08-19T08:39:10.544Z,24.49
2022-08-19T08:40:13.191Z,24.28
2022-08-19T08:41:10.542Z,24.31
2022-08-19T08:42:16.726Z,24.57
2022-08-19T08:43:11.758Z,24.78
2022-08-19T08:44:10.507Z,24.93
2022-08-19T08:45:11.616Z,24.84
2022-08-19T08:46:12.395Z,24.81
2022-08-19T08:47:10.458Z,24.93
2022-08-19T08:48:22.375Z,25.06
2022-08-19T08:49:11.498Z,25.25
2022-08-19T08:50:10.530Z,25.43
2022-08-19T08:51:10.422Z,25.54
2022-08-19T08:52:10.550Z,25.51
2022-08-19T08:53:10.411Z,25.42
2022-08-19T08:54:10.392Z,25.46
2022-08-19T08:55:10.708Z,25.23
2022-08-19T08:56:10.394Z,25.06
2022-08-19T08:57:10.364Z,24.99
2022-08-19T08:58:10.388Z,25.05
2022-08-19T08:59:10.348Z,25.03
2022-08-19T09:00:15.176Z,25.25
2022-08-19T09:01:11.396Z,25.35
2022-08-19T09:02:10.367Z,25.33
2022-08-19T09:03:10.526Z,25.33
2022-08-19T09:04:10.309Z,25.43
2022-08-19T09:05:10.278Z,25.52
2022-08-19T09:06:12.053Z,25.51
2022-08-19T09:07:22.908Z,25.36
2022-08-19T09:08:12.157Z,25.32
2022-08-19T09:09:11.930Z,25.42
2022-08-19T09:10:10.282Z,25.51
2022-08-19T09:11:10.221Z,25.46
2022-08-19T09:12:11.723Z,25.40
2022-08-19T09:13:10.220Z,25.47
2022-08-19T09:14:29.239Z,25.47
2022-08-19T09:15:11.185Z,25.55
2022-08-19T09:16:10.321Z,25.82
2022-08-19T09:17:10.172Z,26.09
2022-08-19T09:18:15.289Z,26.39
2022-08-19T09:19:11.153Z,26.40
2022-08-19T09:20:10.154Z,26.36
2022-08-19T09:21:10.126Z,26.29
2022-08-19T09:22:10.652Z,26.18
2022-08-19T09:23:10.124Z,26.25
2022-08-19T09:24:10.155Z,26.23
2022-08-19T09:25:10.088Z,26.07
2022-08-19T09:26:10.416Z,25.91
2022-08-19T09:27:18.457Z,25.76
2022-08-19T09:28:20.355Z,25.65
2022-08-19T09:29:11.062Z,25.60
2022-08-19T09:30:10.052Z,25.43
2022-08-19T09:31:10.051Z,25.21
2022-08-19T09:32:26.224Z,25.00
2022-08-19T09:33:11.032Z,24.87
2022-08-19T09:34:21.162Z,24.95
2022-08-19T09:35:11.005Z,24.95
2022-08-19T09:36:10.146Z,25.05
2022-08-19T09:37:09.985Z,25.18
2022-08-19T09:38:10.023Z,25.27
2022-08-19T09:39:16.146Z,25.42
2022-08-19T09:40:11.927Z,25.47
2022-08-19T09:41:09.945Z,25.43
2022-08-19T09:42:16.093Z,25.30
2022-08-19T09:43:13.163Z,25.17
2022-08-19T09:44:09.972Z,25.05
2022-08-19T09:45:10.222Z,25.09
2022-08-19T09:46:09.962Z,25.24
2022-08-19T09:47:09.890Z,25.43
2022-08-19T09:48:10.027Z,25.51
2022-08-19T09:49:09.925Z,25.77
2022-08-19T09:50:09.880Z,26.29
2022-08-19T09:51:11.962Z,26.76
2022-08-19T11:15:46.690Z,28.15
2022-08-19T11:16:46.651Z,28.58
2022-08-19T11:17:46.683Z,28.71
2022-08-19T11:18:46.636Z,28.48
2022-08-19T11:19:46.623Z,28.07
2022-08-19T11:20:46.614Z,27.75
2022-08-19T11:21:46.671Z,27.50
2022-08-19T11:22:46.604Z,27.25
2022-08-19T11:23:46.586Z,26.95
2022-08-19T11:24:46.615Z,26.85
2022-08-19T11:25:46.598Z,26.91
2022-08-19T11:26:46.575Z,27.00
2022-08-19T11:27:46.576Z,26.97
2022-08-19T11:28:46.548Z,26.92
2022-08-19T11:29:46.549Z,26.87
2022-08-19T11:30:46.521Z,26.72
2022-08-19T12:58:21.476Z,28.66
2022-08-19T13:00:31.558Z,28.48
2022-08-19T13:01:35.003Z,28.41
2022-08-19T13:02:43.704Z,28.36
2022-08-19T13:03:31.239Z,28.52
2022-08-19T13:56:37.536Z,29.36
2022-08-19T13:57:37.533Z,29.37
2022-08-19T13:58:37.538Z,29.39
2022-08-19T13:59:37.490Z,29.23
2022-08-19T14:00:37.542Z,29.28
2022-08-19T14:01:37.468Z,29.53
2022-08-19T14:02:37.465Z,29.74
2022-08-19T14:03:37.439Z,29.90
2022-08-19T14:04:37.449Z,29.87
2022-08-19T14:05:37.444Z,29.85
2022-08-19T14:06:37.425Z,29.78
2022-08-19T14:07:37.423Z,29.65
2022-08-19T14:08:37.412Z,29.52
2022-08-19T14:09:37.383Z,29.45
2022-08-19T14:10:37.413Z,29.30
2022-08-19T15:00:50.734Z,28.31
2022-08-19T15:01:50.778Z,28.36
2022-08-19T15:02:50.712Z,28.40
2022-08-19T15:03:50.725Z,28.43
2022-08-19T15:04:58.137Z,28.37
2022-08-19T15:05:51.685Z,28.30
2022-08-19T15:46:11.605Z,27.74
2022-08-19T15:47:12.615Z,27.67
2022-08-19T15:48:11.545Z,27.63
2022-08-19T15:49:11.536Z,27.60
2022-08-19T15:50:11.598Z,27.57
2022-08-19T15:51:11.506Z,27.51
2022-08-19T15:52:11.499Z,27.47
2022-08-19T15:53:11.507Z,27.46
2022-08-19T15:54:11.645Z,27.40
2022-08-19T15:55:11.468Z,27.34
2022-08-19T15:56:12.470Z,27.32
2022-08-19T15:57:11.435Z,27.31
2022-08-19T15:58:11.443Z,27.28
2022-08-19T15:59:12.411Z,27.27
2022-08-19T16:00:11.672Z,27.24
2022-08-19T16:01:12.834Z,27.22
2022-08-19T17:00:47.436Z,26.32
2022-08-19T17:01:47.576Z,26.28
2022-08-19T17:02:47.398Z,26.25
2022-08-19T17:03:47.429Z,26.23
2022-08-19T17:04:57.623Z,26.17
2022-08-19T17:05:48.379Z,26.12
2022-08-19T17:06:47.357Z,26.12
2022-08-19T17:07:47.351Z,26.10
2022-08-19T17:08:48.834Z,26.06
2022-08-19T17:09:47.319Z,26.05
2022-08-19T17:11:16.450Z,25.99
2022-08-19T17:11:48.300Z,25.98
2022-08-19T17:12:47.377Z,25.98
2022-08-19T17:13:47.924Z,25.97
2022-08-19T17:14:47.271Z,25.97
2022-08-19T17:15:47.262Z,25.95
2022-08-19T17:16:47.371Z,25.95
2022-08-19T17:17:47.242Z,25.97
2022-08-19T17:18:47.223Z,25.95
2022-08-19T17:19:47.252Z,25.95
2022-08-19T17:20:47.211Z,25.94
2022-08-19T17:21:47.196Z,25.94
2022-08-19T17:22:47.191Z,25.92
2022-08-19T17:23:47.166Z,25.91
2022-08-19T17:24:47.166Z,25.90
2022-08-19T17:25:47.148Z,25.90
2022-08-19T17:26:47.146Z,25.87
2022-08-19T17:27:47.126Z,25.85
2022-08-19T17:28:47.129Z,25.82
2022-08-19T17:29:47.329Z,25.80
2022-08-19T17:30:47.106Z,25.82
2022-08-19T18:28:05.998Z,24.46
2022-08-19T18:29:05.884Z,24.42
2022-08-19T18:30:05.920Z,24.40
2022-08-19T18:31:05.855Z,24.35
2022-08-19T18:32:05.905Z,24.34
2022-08-19T18:33:09.064Z,24.34
2022-08-19T18:34:05.840Z,24.30
2022-08-19T18:35:05.816Z,24.30
2022-08-19T18:36:06.056Z,24.27
2022-08-19T18:37:05.790Z,24.25
2022-08-19T18:38:05.788Z,24.24
2022-08-19T18:39:08.075Z,24.22
2022-08-19T18:40:05.821Z,24.21
2022-08-19T18:41:05.759Z,24.18
2022-08-19T18:42:05.760Z,24.16
2022-08-19T18:43:05.727Z,24.13
2022-08-19T18:44:05.798Z,24.12
2022-08-19T18:45:05.710Z,24.09
2022-08-19T18:46:07.160Z,24.08
2022-08-19T18:47:05.691Z,24.05
2022-08-19T18:48:05.713Z,24.03
2022-08-19T18:49:05.662Z,24.00
2022-08-19T18:50:05.700Z,23.98
2022-08-19T18:51:05.653Z,23.95
2022-08-19T18:52:05.633Z,23.94
2022-08-19T18:53:05.624Z,23.91
2022-08-19T18:54:05.625Z,23.91
2022-08-19T18:55:05.615Z,23.88
2022-08-19T18:56:05.644Z,23.84
2022-08-19T18:57:05.686Z,23.83
2022-08-19T18:58:05.605Z,23.79
2022-08-19T18:59:05.583Z,23.78
2022-08-19T19:00:05.556Z,23.76
2022-08-19T19:01:05.591Z,23.72
2022-08-19T19:02:05.546Z,23.70
2022-08-19T19:03:05.525Z,23.69
2022-08-19T19:04:05.517Z,23.65
2022-08-19T19:05:07.352Z,23.63
2022-08-19T19:06:05.557Z,23.58
2022-08-19T19:07:05.470Z,23.57
2022-08-19T19:08:05.877Z,23.54
2022-08-19T19:09:05.471Z,23.50
2022-08-19T19:10:05.654Z,23.47
2022-08-19T19:11:05.429Z,23.43
2022-08-19T19:12:05.519Z,23.40
2022-08-19T19:13:05.400Z,23.39
2022-08-19T19:14:05.471Z,23.36
2022-08-19T19:15:05.414Z,23.32
2022-08-19T19:16:05.394Z,23.28
2022-08-19T19:17:05.362Z,23.25
2022-08-19T19:18:05.363Z,23.23
2022-08-19T19:19:05.351Z,23.20
2022-08-19T19:20:05.426Z,23.20
2022-08-19T19:21:05.322Z,23.16
2022-08-19T19:22:05.335Z,23.13
2022-08-19T19:23:05.294Z,23.10
2022-08-19T19:24:05.348Z,23.09
2022-08-19T19:25:05.267Z,23.07
2022-08-19T19:26:05.268Z,23.04
2022-08-19T19:27:05.244Z,23.02
2022-08-19T19:28:05.256Z,22.98
2022-08-19T19:29:05.245Z,22.97
2022-08-19T19:30:05.331Z,22.95
2022-08-19T19:31:05.204Z,22.92
2022-08-19T19:32:05.214Z,22.92
2022-08-19T19:33:05.187Z,22.90
2022-08-19T19:34:05.255Z,22.88
2022-08-19T19:35:06.168Z,22.85
2022-08-19T19:36:05.158Z,22.83
2022-08-19T19:37:05.136Z,22.80
2022-08-19T19:38:05.160Z,22.79
2022-08-19T19:39:05.128Z,22.76
2022-08-19T19:40:05.231Z,22.73
2022-08-19T19:41:05.094Z,22.73
2022-08-19T19:42:05.091Z,22.70
2022-08-19T19:43:06.075Z,22.67
2022-08-19T19:44:30.049Z,22.64
2022-08-19T19:45:06.045Z,22.62
2022-08-19T19:46:05.114Z,22.61
2022-08-19T19:47:05.032Z,22.58
2022-08-19T19:48:05.027Z,22.57
2022-08-19T19:49:05.023Z,22.54
2022-08-19T19:50:14.659Z,22.52
2022-08-19T19:51:05.986Z,22.52
2022-08-19T19:52:05.088Z,22.49
2022-08-19T19:53:04.965Z,22.46
2022-08-19T19:54:04.982Z,22.43
2022-08-19T19:55:04.936Z,22.42
2022-08-19T19:56:04.973Z,22.39
2022-08-19T19:57:04.933Z,22.37
2022-08-19T19:58:04.914Z,22.36
2022-08-19T19:59:04.909Z,22.33
2022-08-19T20:00:04.922Z,22.31
2022-08-19T20:01:09.742Z,22.28
2022-08-19T20:02:05.868Z,22.27
2022-08-19T20:03:04.848Z,22.25
2022-08-19T20:04:04.903Z,22.22
2022-08-19T20:05:04.829Z,22.20
2022-08-19T20:06:04.818Z,22.18
2022-08-19T20:07:04.808Z,22.17
2022-08-19T20:08:04.820Z,22.15
2022-08-19T20:09:04.790Z,22.14
2022-08-19T20:10:04.781Z,22.10
2022-08-19T20:11:04.770Z,22.09
2022-08-19T20:12:04.796Z,22.09
2022-08-19T20:13:04.764Z,22.07
2022-08-19T20:14:04.751Z,22.07
2022-08-19T20:15:04.719Z,22.05
2022-08-19T20:16:04.714Z,22.05
2022-08-19T20:17:04.701Z,22.03
2022-08-19T20:18:04.699Z,22.03
2022-08-19T20:19:04.683Z,22.02
2022-08-19T20:20:04.735Z,22.03
2022-08-19T20:21:04.654Z,22.03
2022-08-19T20:22:04.646Z,22.03
2022-08-19T20:23:04.638Z,22.05
2022-08-19T20:24:09.773Z,22.06
2022-08-19T20:25:05.607Z,22.09
2022-08-19T20:26:04.597Z,22.10
2022-08-19T20:27:04.587Z,22.15
2022-08-19T20:28:04.595Z,22.20
2022-08-19T20:29:13.531Z,22.24
2022-08-19T20:30:05.723Z,22.28
2022-08-19T20:31:04.538Z,22.33
2022-08-19T20:32:04.548Z,22.36
2022-08-19T20:33:04.518Z,22.39
2022-08-19T20:34:04.518Z,22.42
2022-08-19T20:35:04.509Z,22.45
2022-08-19T20:36:04.500Z,22.46
2022-08-19T20:37:04.469Z,22.47
2022-08-19T20:38:04.491Z,22.49
2022-08-19T20:39:04.451Z,22.51
2022-08-19T20:40:04.681Z,22.52
2022-08-19T20:41:04.492Z,22.54
2022-08-19T20:42:04.482Z,22.55
2022-08-19T20:43:04.411Z,22.57
2022-08-19T20:44:04.475Z,22.57
2022-08-19T20:45:04.392Z,22.57
2022-08-19T20:46:04.381Z,22.58
2022-08-19T20:47:04.460Z,22.58
2022-08-19T20:48:04.357Z,22.57
2022-08-19T20:49:04.344Z,22.58
2022-08-19T20:50:04.354Z,22.58
2022-08-19T20:51:04.356Z,22.57
2022-08-19T20:52:04.325Z,22.55
2022-08-19T20:53:04.304Z,22.57
2022-08-19T20:54:04.330Z,22.54
2022-08-19T20:55:04.285Z,22.55
2022-08-19T20:56:04.277Z,22.52
2022-08-19T20:57:04.257Z,22.54
2022-08-19T20:58:04.264Z,22.52
2022-08-19T20:59:04.248Z,22.51
2022-08-19T21:00:04.289Z,22.51
2022-08-19T21:01:04.279Z,22.49
2022-08-19T21:02:04.311Z,22.49
2022-08-19T21:03:04.189Z,22.46
2022-08-19T21:04:04.428Z,22.46
2022-08-19T21:05:05.181Z,22.45
2022-08-19T21:06:04.238Z,22.45
2022-08-19T21:07:04.143Z,22.42
2022-08-19T21:08:04.173Z,22.42
2022-08-19T21:09:04.140Z,22.40
2022-08-19T21:10:04.861Z,22.39
2022-08-19T21:11:04.102Z,22.39
2022-08-19T21:12:04.108Z,22.37
2022-08-19T21:13:04.073Z,22.39
2022-08-19T21:14:04.092Z,22.36
2022-08-19T21:15:04.074Z,22.35
2022-08-19T21:16:04.091Z,22.35
2022-08-19T21:17:05.034Z,22.33
2022-08-19T21:18:04.043Z,22.33
2022-08-19T21:19:04.030Z,22.31
2022-08-19T21:20:04.030Z,22.31
2022-08-19T21:21:04.002Z,22.30
2022-08-19T21:22:04.003Z,22.28
2022-08-19T21:23:03.976Z,22.28
2022-08-19T21:24:03.967Z,22.27
2022-08-19T21:25:03.957Z,22.27
2022-08-19T21:26:03.989Z,22.27
2022-08-19T21:27:03.927Z,22.25
2022-08-19T21:28:03.927Z,22.24
2022-08-19T21:29:03.928Z,22.24
2022-08-19T21:30:03.937Z,22.24
2022-08-19T21:31:03.911Z,22.22
2022-08-19T21:32:03.891Z,22.22
2022-08-19T21:33:03.869Z,22.22
2022-08-19T21:34:03.891Z,22.20
2022-08-19T21:35:03.851Z,22.18
2022-08-19T21:36:03.831Z,22.18
2022-08-19T21:37:03.821Z,22.18
2022-08-19T21:38:03.815Z,22.18
2022-08-19T21:39:03.831Z,22.18
2022-08-19T21:40:03.838Z,22.17
2022-08-19T21:41:05.798Z,22.15
2022-08-19T21:42:03.778Z,22.15
2022-08-19T21:43:03.763Z,22.14
2022-08-19T21:44:03.822Z,22.12
2022-08-19T21:45:03.745Z,22.10
2022-08-19T21:46:03.739Z,22.09
2022-08-19T21:47:03.714Z,22.07
2022-08-19T21:48:03.805Z,22.07
2022-08-19T21:49:03.696Z,22.07
2022-08-19T21:50:03.726Z,22.05
2022-08-19T21:51:03.668Z,22.05
2022-08-19T21:52:03.648Z,22.02
2022-08-19T21:53:03.649Z,22.00
2022-08-19T21:54:03.770Z,21.99
2022-08-19T21:55:03.633Z,21.98
2022-08-19T21:56:03.648Z,21.96
2022-08-19T21:57:03.599Z,21.96
2022-08-19T21:58:04.604Z,21.94
2022-08-19T21:59:03.598Z,21.92
2022-08-19T22:00:03.581Z,21.92
2022-08-19T22:01:03.597Z,21.92
2022-08-19T22:02:19.162Z,21.90
2022-08-19T22:03:04.557Z,21.90
2022-08-19T22:04:03.551Z,21.86
2022-08-19T22:05:03.512Z,21.84
2022-08-19T22:06:03.510Z,21.84
2022-08-19T22:07:03.492Z,21.84
2022-08-19T22:08:03.495Z,21.83
2022-08-19T22:09:03.491Z,21.82
2022-08-19T22:10:03.453Z,21.82
2022-08-19T22:11:03.450Z,21.80
2022-08-19T22:12:03.462Z,21.80
2022-08-19T22:13:03.433Z,21.79
2022-08-19T22:14:03.928Z,21.79
2022-08-19T22:15:03.406Z,21.77
2022-08-19T22:16:03.407Z,21.77
2022-08-19T22:17:03.385Z,21.74
2022-08-19T22:18:03.387Z,21.77
2022-08-19T22:19:03.846Z,21.74
2022-08-19T22:20:03.364Z,21.74
2022-08-19T22:21:03.335Z,21.75
2022-08-19T22:22:03.543Z,21.72
2022-08-19T22:23:03.318Z,21.71
2022-08-19T22:24:04.098Z,21.71
2022-08-19T22:25:03.299Z,21.69
2022-08-19T22:26:03.480Z,21.69
2022-08-19T22:27:03.278Z,21.69
2022-08-19T22:28:54.466Z,21.69
2022-08-19T22:29:54.428Z,21.68
2022-08-19T22:30:54.405Z,21.68
2022-08-19T22:31:58.344Z,21.67
2022-08-19T22:32:56.002Z,21.67
2022-08-19T22:33:54.415Z,21.67
2022-08-19T22:34:54.386Z,21.65
2022-08-19T22:35:54.362Z,21.65
2022-08-19T22:36:54.347Z,21.65
2022-08-19T22:37:54.445Z,21.65
2022-08-19T22:38:54.329Z,21.64
2022-08-19T22:39:54.353Z,21.62
2022-08-19T22:40:54.299Z,21.64
2022-08-19T23:15:51.775Z,21.46
2022-08-19T23:16:54.114Z,21.46
2022-08-19T23:17:51.824Z,21.46
2022-08-19T23:18:55.936Z,21.47
2022-08-19T23:19:51.727Z,21.46
2022-08-19T23:20:51.711Z,21.47
2022-08-19T23:21:51.706Z,21.46
2022-08-19T23:22:51.690Z,21.44
2022-08-19T23:23:51.679Z,21.44
2022-08-19T23:24:51.667Z,21.44
2022-08-19T23:25:51.661Z,21.44
2022-08-19T23:26:51.761Z,21.43
2022-08-19T23:27:51.743Z,21.43
2022-08-19T23:28:51.618Z,21.42
2022-08-19T23:29:51.611Z,21.42
2022-08-19T23:30:51.590Z,21.40
